sensor_id;sensor_type;location;lat;lon;timestamp;pressure;altitude;pressure_sealevel;temperature;humidity
78182;BME280;67441;50.116;8.696;2023-05-10T00:00:08;99544.31;;;14.57;88.03
78182;BME280;67441;50.116;8.696;2023-05-10T00:00:35;99495.19;;;14.37;88.18
78182;BME280;67441;50.116;8.696;2023-05-10T00:01:47;99490.97;;;14.27;87.79
78182;BME280;67441;50.116;8.696;2023-05-10T00:02:21;99540.03;;;14.46;87.60
78182;BME280;67441;50.116;8.696;2023-05-10T00:02:50;99526.13;;;14.34;87.27
78182;BME280;67441;50.116;8.696;2023-05-10T00:03:17;99525.16;;;14.39;87.21
78182;BME280;67441;50.116;8.696;2023-05-10T00:03:45;99568.94;;;14.62;87.13
78182;BME280;67441;50.116;8.696;2023-05-10T00:04:12;99563.72;;;14.57;86.88
78182;BME280;67441;50.116;8.696;2023-05-10T00:04:39;99540.22;;;14.36;87.13
78182;BME280;67441;50.116;8.696;2023-05-10T00:05:07;99542.78;;;14.42;87.07
78182;BME280;67441;50.116;8.696;2023-05-10T00:05:33;99562.75;;;14.61;87.20
78182;BME280;67441;50.116;8.696;2023-05-10T00:06:01;99547.06;;;14.49;87.16
78182;BME280;67441;50.116;8.696;2023-05-10T00:06:29;99571.56;;;14.63;87.01
78182;BME280;67441;50.116;8.696;2023-05-10T00:06:57;99534.78;;;14.43;87.09
78182;BME280;67441;50.116;8.696;2023-05-10T00:07:29;99537.31;;;14.53;87.04
78182;BME280;67441;50.116;8.696;2023-05-10T00:08:38;99541.72;;;14.54;86.83
78182;BME280;67441;50.116;8.696;2023-05-10T00:09:07;99572.44;;;14.64;87.06
78182;BME280;67441;50.116;8.696;2023-05-10T00:09:34;99568.22;;;14.52;86.82
78182;BME280;67441;50.116;8.696;2023-05-10T00:10:01;99563.81;;;14.53;86.82
78182;BME280;67441;50.116;8.696;2023-05-10T00:10:27;99562.94;;;14.52;87.31
78182;BME280;67441;50.116;8.696;2023-05-10T00:10:55;99562.84;;;14.57;86.65
78182;BME280;67441;50.116;8.696;2023-05-10T00:11:25;99564.63;;;14.56;87.48
78182;BME280;67441;50.116;8.696;2023-05-10T00:11:54;99528.97;;;14.23;87.33
78182;BME280;67441;50.116;8.696;2023-05-10T00:12:24;99571.00;;;14.44;87.53
78182;BME280;67441;50.116;8.696;2023-05-10T00:12:50;99535.41;;;14.08;88.14
78182;BME280;67441;50.116;8.696;2023-05-10T00:13:15;99569.41;;;14.34;88.31
78182;BME280;67441;50.116;8.696;2023-05-10T00:13:42;99530.16;;;14.05;88.46
78182;BME280;67441;50.116;8.696;2023-05-10T00:14:09;99531.19;;;13.96;88.16
78182;BME280;67441;50.116;8.696;2023-05-10T00:14:38;99540.84;;;13.99;88.47
78182;BME280;67441;50.116;8.696;2023-05-10T00:15:05;99506.63;;;13.88;88.28
78182;BME280;67441;50.116;8.696;2023-05-10T00:16:47;99576.06;;;14.04;89.14
78182;BME280;67441;50.116;8.696;2023-05-10T00:17:23;99519.34;;;13.65;89.08
78182;BME280;67441;50.116;8.696;2023-05-10T00:17:50;99511.25;;;13.74;88.74
78182;BME280;67441;50.116;8.696;2023-05-10T00:18:28;99566.03;;;14.23;88.62
78182;BME280;67441;50.116;8.696;2023-05-10T00:19:05;99531.06;;;14.04;88.17
78182;BME280;67441;50.116;8.696;2023-05-10T00:19:41;99580.16;;;14.22;87.78
78182;BME280;67441;50.116;8.696;2023-05-10T00:20:08;99526.78;;;13.97;87.72
78182;BME280;67441;50.116;8.696;2023-05-10T00:20:37;99513.94;;;13.72;87.68
78182;BME280;67441;50.116;8.696;2023-05-10T00:22:21;99578.66;;;14.07;88.10
78182;BME280;67441;50.116;8.696;2023-05-10T00:22:50;99588.25;;;14.13;88.14
78182;BME280;67441;50.116;8.696;2023-05-10T00:23:21;99536.66;;;13.86;87.55
78182;BME280;67441;50.116;8.696;2023-05-10T00:23:51;99586.38;;;14.21;87.73
78182;BME280;67441;50.116;8.696;2023-05-10T00:24:29;99581.97;;;14.20;87.59
78182;BME280;67441;50.116;8.696;2023-05-10T00:25:04;99516.38;;;13.86;87.28
78182;BME280;67441;50.116;8.696;2023-05-10T00:25:39;99573.06;;;14.27;87.22
78182;BME280;67441;50.116;8.696;2023-05-10T00:26:15;99573.97;;;14.23;86.88
78182;BME280;67441;50.116;8.696;2023-05-10T00:26:47;99557.41;;;14.12;87.26
78182;BME280;67441;50.116;8.696;2023-05-10T00:27:29;99550.84;;;13.80;87.76
78182;BME280;67441;50.116;8.696;2023-05-10T00:28:04;99516.84;;;13.54;88.05
78182;BME280;67441;50.116;8.696;2023-05-10T00:28:41;99570.09;;;13.90;88.07
78182;BME280;67441;50.116;8.696;2023-05-10T00:29:24;99528.19;;;13.61;88.53
78182;BME280;67441;50.116;8.696;2023-05-10T00:29:53;99546.47;;;13.77;88.26
78182;BME280;67441;50.116;8.696;2023-05-10T00:30:30;99556.88;;;13.90;88.17
78182;BME280;67441;50.116;8.696;2023-05-10T00:31:10;99560.47;;;13.86;87.87
78182;BME280;67441;50.116;8.696;2023-05-10T00:31:50;99553.69;;;13.66;87.85
78182;BME280;67441;50.116;8.696;2023-05-10T00:32:23;99514.44;;;13.37;87.95
78182;BME280;67441;50.116;8.696;2023-05-10T00:32:53;99542.44;;;13.50;88.63
78182;BME280;67441;50.116;8.696;2023-05-10T00:33:23;99571.09;;;13.83;88.65
78182;BME280;67441;50.116;8.696;2023-05-10T00:33:54;99540.47;;;13.66;88.26
78182;BME280;67441;50.116;8.696;2023-05-10T00:34:27;99550.81;;;13.83;87.89
78182;BME280;67441;50.116;8.696;2023-05-10T00:35:04;99578.00;;;13.91;87.79
78182;BME280;67441;50.116;8.696;2023-05-10T00:35:36;99528.34;;;13.50;87.71
78182;BME280;67441;50.116;8.696;2023-05-10T00:36:10;99560.84;;;13.60;88.42
78182;BME280;67441;50.116;8.696;2023-05-10T00:36:54;99510.88;;;13.40;88.42
78182;BME280;67441;50.116;8.696;2023-05-10T00:37:35;99585.22;;;13.78;87.95
78182;BME280;67441;50.116;8.696;2023-05-10T00:39:01;99569.31;;;13.83;87.47
78182;BME280;67441;50.116;8.696;2023-05-10T00:39:40;99508.19;;;13.43;87.68
78182;BME280;67441;50.116;8.696;2023-05-10T00:40:13;99584.38;;;13.78;87.48
78182;BME280;67441;50.116;8.696;2023-05-10T00:40:49;99557.13;;;13.71;87.80
78182;BME280;67441;50.116;8.696;2023-05-10T00:41:22;99581.47;;;13.96;87.57
78182;BME280;67441;50.116;8.696;2023-05-10T00:41:58;99507.19;;;13.50;87.21
78182;BME280;67441;50.116;8.696;2023-05-10T00:42:26;99560.47;;;13.84;87.24
78182;BME280;67441;50.116;8.696;2023-05-10T00:43:00;99579.69;;;13.97;87.20
78182;BME280;67441;50.116;8.696;2023-05-10T00:43:34;99521.94;;;13.66;87.16
78182;BME280;67441;50.116;8.696;2023-05-10T00:44:07;99572.63;;;13.97;87.09
78182;BME280;67441;50.116;8.696;2023-05-10T00:44:35;99580.53;;;14.00;86.73
78182;BME280;67441;50.116;8.696;2023-05-10T00:45:03;99543.03;;;13.71;87.11
78182;BME280;67441;50.116;8.696;2023-05-10T00:45:40;99569.47;;;13.72;87.25
78182;BME280;67441;50.116;8.696;2023-05-10T00:46:12;99592.19;;;13.87;87.29
78182;BME280;67441;50.116;8.696;2023-05-10T00:46:45;99594.03;;;13.82;87.56
78182;BME280;67441;50.116;8.696;2023-05-10T00:47:17;99517.03;;;13.40;87.37
78182;BME280;67441;50.116;8.696;2023-05-10T00:47:50;99585.16;;;13.85;87.59
78182;BME280;67441;50.116;8.696;2023-05-10T00:48:23;99593.22;;;13.77;87.33
78182;BME280;67441;50.116;8.696;2023-05-10T01:09:13;99525.19;;;13.23;87.45
78182;BME280;67441;50.116;8.696;2023-05-10T01:09:54;99540.19;;;13.20;87.74
78182;BME280;67441;50.116;8.696;2023-05-10T01:10:58;99558.34;;;13.49;87.49
78182;BME280;67441;50.116;8.696;2023-05-10T01:11:33;99607.41;;;13.70;87.25
78182;BME280;67441;50.116;8.696;2023-05-10T01:12:28;99597.97;;;13.50;87.25
78182;BME280;67441;50.116;8.696;2023-05-10T01:13:02;99601.44;;;13.54;87.41
78182;BME280;67441;50.116;8.696;2023-05-10T01:13:36;99597.75;;;13.67;87.43
78182;BME280;67441;50.116;8.696;2023-05-10T01:14:13;99591.47;;;13.76;86.99
78182;BME280;67441;50.116;8.696;2023-05-10T01:14:56;99553.13;;;13.44;86.50
78182;BME280;67441;50.116;8.696;2023-05-10T01:15:33;99597.59;;;13.79;86.39
78182;BME280;67441;50.116;8.696;2023-05-10T01:16:08;99597.69;;;13.72;86.40
78182;BME280;67441;50.116;8.696;2023-05-10T01:17:16;99601.28;;;13.66;86.32
78182;BME280;67441;50.116;8.696;2023-05-10T01:17:54;99519.94;;;13.19;86.48
78182;BME280;67441;50.116;8.696;2023-05-10T01:18:47;99562.06;;;13.34;86.45
78182;BME280;67441;50.116;8.696;2023-05-10T01:19:31;99537.75;;;13.01;86.95
78182;BME280;67441;50.116;8.696;2023-05-10T01:40:32;99614.13;;;13.26;87.14
78182;BME280;67441;50.116;8.696;2023-05-10T04:31:20;99709.25;;;13.30;84.88
78182;BME280;67441;50.116;8.696;2023-05-10T04:31:46;99644.28;;;13.05;84.79
78182;BME280;67441;50.116;8.696;2023-05-10T04:32:12;99704.72;;;13.40;84.93
78182;BME280;67441;50.116;8.696;2023-05-10T04:32:38;99709.09;;;13.44;84.43
78182;BME280;67441;50.116;8.696;2023-05-10T04:33:03;99702.03;;;13.46;84.25
78182;BME280;67441;50.116;8.696;2023-05-10T04:33:30;99666.91;;;13.35;83.78
78182;BME280;67441;50.116;8.696;2023-05-10T04:33:55;99701.91;;;13.59;83.68
78182;BME280;67441;50.116;8.696;2023-05-10T04:34:21;99706.22;;;13.64;83.60
78182;BME280;67441;50.116;8.696;2023-05-10T04:34:49;99700.03;;;13.68;83.58
78182;BME280;67441;50.116;8.696;2023-05-10T04:35:16;99678.09;;;13.57;83.40
78182;BME280;67441;50.116;8.696;2023-05-10T04:35:42;99705.28;;;13.70;83.43
78182;BME280;67441;50.116;8.696;2023-05-10T04:36:10;99676.25;;;13.64;82.68
78182;BME280;67441;50.116;8.696;2023-05-10T04:36:56;99706.88;;;13.83;82.98
78182;BME280;67441;50.116;8.696;2023-05-10T04:38:03;99652.59;;;13.54;82.53
78182;BME280;67441;50.116;8.696;2023-05-10T04:38:34;99702.53;;;13.77;82.51
78182;BME280;67441;50.116;8.696;2023-05-10T04:39:06;99616.00;;;13.15;82.86
78182;BME280;67441;50.116;8.696;2023-05-10T04:39:35;99658.06;;;13.36;82.63
78182;BME280;67441;50.116;8.696;2023-05-10T04:40:01;99709.72;;;13.66;82.90
78182;BME280;67441;50.116;8.696;2023-05-10T04:40:28;99676.47;;;13.44;82.68
78182;BME280;67441;50.116;8.696;2023-05-10T04:40:53;99714.94;;;13.72;82.90
78182;BME280;67441;50.116;8.696;2023-05-10T04:41:26;99635.22;;;13.34;82.85
78182;BME280;67441;50.116;8.696;2023-05-10T04:41:56;99716.56;;;13.86;82.89
78182;BME280;67441;50.116;8.696;2023-05-10T04:42:22;99668.31;;;13.64;82.60
78182;BME280;67441;50.116;8.696;2023-05-10T04:42:48;99708.59;;;13.87;82.51
78182;BME280;67441;50.116;8.696;2023-05-10T04:43:17;99692.78;;;13.81;82.54
78182;BME280;67441;50.116;8.696;2023-05-10T04:43:46;99713.81;;;13.92;82.26
78182;BME280;67441;50.116;8.696;2023-05-10T04:44:29;99663.03;;;13.64;82.25
78182;BME280;67441;50.116;8.696;2023-05-10T04:44:57;99722.63;;;13.94;82.40
78182;BME280;67441;50.116;8.696;2023-05-10T04:45:25;99684.91;;;13.75;82.17
78182;BME280;67441;50.116;8.696;2023-05-10T04:45:51;99681.41;;;13.74;82.36
78182;BME280;67441;50.116;8.696;2023-05-10T04:46:27;99643.00;;;13.44;82.04
78182;BME280;67441;50.116;8.696;2023-05-10T04:46:55;99684.22;;;13.62;82.38
78182;BME280;67441;50.116;8.696;2023-05-10T04:47:29;99723.59;;;13.85;82.58
78182;BME280;67441;50.116;8.696;2023-05-10T04:47:55;99723.53;;;13.93;82.47
78182;BME280;67441;50.116;8.696;2023-05-10T04:48:22;99722.63;;;13.94;82.28
78182;BME280;67441;50.116;8.696;2023-05-10T04:49:30;99682.28;;;13.75;82.11
78182;BME280;67441;50.116;8.696;2023-05-10T04:50:06;99698.03;;;13.84;82.04
78182;BME280;67441;50.116;8.696;2023-05-10T04:50:32;99693.66;;;13.82;82.13
78182;BME280;67441;50.116;8.696;2023-05-10T04:50:57;99722.56;;;13.95;81.86
78182;BME280;67441;50.116;8.696;2023-05-10T04:51:23;99727.84;;;14.00;81.97
78182;BME280;67441;50.116;8.696;2023-05-10T04:51:48;99722.56;;;13.95;82.11
78182;BME280;67441;50.116;8.696;2023-05-10T04:52:13;99725.19;;;13.98;82.03
78182;BME280;67441;50.116;8.696;2023-05-10T04:52:40;99718.22;;;13.93;81.81
78182;BME280;67441;50.116;8.696;2023-05-10T04:53:05;99719.97;;;13.92;81.85
78182;BME280;67441;50.116;8.696;2023-05-10T04:53:32;99719.97;;;13.94;81.66
78182;BME280;67441;50.116;8.696;2023-05-10T04:53:57;99720.81;;;13.97;81.84
78182;BME280;67441;50.116;8.696;2023-05-10T04:54:23;99726.13;;;13.96;81.87
78182;BME280;67441;50.116;8.696;2023-05-10T04:54:48;99730.59;;;13.91;81.67
78182;BME280;67441;50.116;8.696;2023-05-10T04:55:14;99649.16;;;13.45;81.94
78182;BME280;67441;50.116;8.696;2023-05-10T04:55:39;99728.03;;;13.83;81.63
78182;BME280;67441;50.116;8.696;2023-05-10T04:56:05;99702.53;;;13.77;82.05
78182;BME280;67441;50.116;8.696;2023-05-10T04:56:30;99721.72;;;13.95;82.28
78182;BME280;67441;50.116;8.696;2023-05-10T04:56:56;99712.13;;;13.85;81.97
78182;BME280;67441;50.116;8.696;2023-05-10T04:57:21;99724.38;;;13.92;81.97
78182;BME280;67441;50.116;8.696;2023-05-10T04:57:47;99723.56;;;13.90;81.99
78182;BME280;67441;50.116;8.696;2023-05-10T04:58:12;99724.47;;;13.87;82.20
78182;BME280;67441;50.116;8.696;2023-05-10T04:58:37;99728.78;;;13.94;81.97
78182;BME280;67441;50.116;8.696;2023-05-10T04:59:03;99726.19;;;13.90;81.94
78182;BME280;67441;50.116;8.696;2023-05-10T04:59:29;99728.84;;;13.90;82.04
78182;BME280;67441;50.116;8.696;2023-05-10T04:59:54;99724.38;;;13.92;82.21
78182;BME280;67441;50.116;8.696;2023-05-10T05:00:19;99718.38;;;13.80;82.50
78182;BME280;67441;50.116;8.696;2023-05-10T05:00:45;99724.44;;;13.90;82.23
78182;BME280;67441;50.116;8.696;2023-05-10T05:01:10;99733.16;;;13.95;82.29
78182;BME280;67441;50.116;8.696;2023-05-10T05:01:36;99726.09;;;13.97;82.00
78182;BME280;67441;50.116;8.696;2023-05-10T05:02:01;99715.47;;;14.00;82.07
78182;BME280;67441;50.116;8.696;2023-05-10T05:02:27;99722.56;;;13.97;82.04
78182;BME280;67441;50.116;8.696;2023-05-10T05:02:52;99709.38;;;13.94;82.17
78182;BME280;67441;50.116;8.696;2023-05-10T05:03:17;99726.94;;;14.01;81.95
78182;BME280;67441;50.116;8.696;2023-05-10T05:03:44;99705.88;;;13.92;81.66
78182;BME280;67441;50.116;8.696;2023-05-10T05:04:09;99727.72;;;14.08;81.69
78182;BME280;67441;50.116;8.696;2023-05-10T05:04:35;99721.53;;;14.09;81.29
78182;BME280;67441;50.116;8.696;2023-05-10T05:05:00;99719.59;;;14.20;81.08
78182;BME280;67441;50.116;8.696;2023-05-10T05:05:26;99726.53;;;14.30;80.86
78182;BME280;67441;50.116;8.696;2023-05-10T05:05:51;99716.78;;;14.32;80.93
78182;BME280;67441;50.116;8.696;2023-05-10T05:06:21;99722.06;;;14.35;80.75
78182;BME280;67441;50.116;8.696;2023-05-10T05:06:46;99721.06;;;14.42;80.21
78182;BME280;67441;50.116;8.696;2023-05-10T05:07:12;99724.53;;;14.46;80.03
78182;BME280;67441;50.116;8.696;2023-05-10T05:07:37;99718.53;;;14.35;80.06
78182;BME280;67441;50.116;8.696;2023-05-10T05:08:03;99713.25;;;14.35;80.38
78182;BME280;67441;50.116;8.696;2023-05-10T05:08:28;99716.72;;;14.37;80.02
78182;BME280;67441;50.116;8.696;2023-05-10T05:08:54;99717.63;;;14.36;80.38
78182;BME280;67441;50.116;8.696;2023-05-10T05:09:19;99685.28;;;14.15;80.47
78182;BME280;67441;50.116;8.696;2023-05-10T05:09:45;99729.16;;;14.30;80.29
78182;BME280;67441;50.116;8.696;2023-05-10T05:10:16;99643.38;;;13.83;80.48
78182;BME280;67441;50.116;8.696;2023-05-10T05:10:54;99728.44;;;14.20;80.17
78182;BME280;67441;50.116;8.696;2023-05-10T05:11:23;99726.59;;;14.25;80.44
78182;BME280;67441;50.116;8.696;2023-05-10T05:11:56;99720.50;;;14.20;80.38
78182;BME280;67441;50.116;8.696;2023-05-10T05:12:25;99694.16;;;14.11;80.87
78182;BME280;67441;50.116;8.696;2023-05-10T05:12:50;99723.81;;;14.35;80.62
78182;BME280;67441;50.116;8.696;2023-05-10T05:13:15;99725.56;;;14.36;80.20
78182;BME280;67441;50.116;8.696;2023-05-10T05:13:40;99723.81;;;14.33;80.08
78182;BME280;67441;50.116;8.696;2023-05-10T05:14:06;99666.06;;;14.01;80.25
78182;BME280;67441;50.116;8.696;2023-05-10T05:14:31;99732.72;;;14.29;80.49
78182;BME280;67441;50.116;8.696;2023-05-10T05:14:56;99730.94;;;14.30;80.62
78182;BME280;67441;50.116;8.696;2023-05-10T05:15:22;99726.53;;;14.30;80.37
78182;BME280;67441;50.116;8.696;2023-05-10T05:15:48;99724.69;;;14.35;80.19
78182;BME280;67441;50.116;8.696;2023-05-10T05:16:13;99733.56;;;14.33;80.69
78182;BME280;67441;50.116;8.696;2023-05-10T05:16:38;99729.97;;;14.37;80.58
78182;BME280;67441;50.116;8.696;2023-05-10T05:17:04;99729.91;;;14.40;80.45
78182;BME280;67441;50.116;8.696;2023-05-10T05:17:30;99699.25;;;14.25;80.43
78182;BME280;67441;50.116;8.696;2023-05-10T05:17:56;99736.78;;;14.56;80.09
78182;BME280;67441;50.116;8.696;2023-05-10T05:18:21;99735.88;;;14.59;80.02
78182;BME280;67441;50.116;8.696;2023-05-10T05:18:47;99719.25;;;14.46;79.77
78182;BME280;67441;50.116;8.696;2023-05-10T05:19:12;99735.94;;;14.53;80.10
78182;BME280;67441;50.116;8.696;2023-05-10T05:19:37;99737.69;;;14.55;80.19
78182;BME280;67441;50.116;8.696;2023-05-10T05:20:03;99732.38;;;14.55;80.09
78182;BME280;67441;50.116;8.696;2023-05-10T05:20:32;99739.44;;;14.56;80.10
78182;BME280;67441;50.116;8.696;2023-05-10T05:20:57;99724.66;;;14.38;79.69
78182;BME280;67441;50.116;8.696;2023-05-10T05:21:23;99740.69;;;14.26;80.45
78182;BME280;67441;50.116;8.696;2023-05-10T05:21:50;99706.63;;;14.03;80.88
78182;BME280;67441;50.116;8.696;2023-05-10T05:22:15;99743.38;;;14.24;80.73
78182;BME280;67441;50.116;8.696;2023-05-10T05:22:40;99746.78;;;14.33;80.97
78182;BME280;67441;50.116;8.696;2023-05-10T05:23:06;99738.09;;;14.24;80.72
78182;BME280;67441;50.116;8.696;2023-05-10T05:23:32;99708.38;;;14.04;80.77
78182;BME280;67441;50.116;8.696;2023-05-10T05:23:57;99744.28;;;14.22;80.87
78182;BME280;67441;50.116;8.696;2023-05-10T05:24:23;99745.06;;;14.30;80.85
78182;BME280;67441;50.116;8.696;2023-05-10T05:24:48;99743.22;;;14.34;80.76
78182;BME280;67441;50.116;8.696;2023-05-10T05:25:14;99737.94;;;14.35;80.73
78182;BME280;67441;50.116;8.696;2023-05-10T05:25:40;99745.84;;;14.38;80.67
78182;BME280;67441;50.116;8.696;2023-05-10T05:26:05;99733.56;;;14.34;80.67
78182;BME280;67441;50.116;8.696;2023-05-10T05:26:34;99736.34;;;14.22;81.05
78182;BME280;67441;50.116;8.696;2023-05-10T05:27:28;99745.09;;;14.28;80.92
78182;BME280;67441;50.116;8.696;2023-05-10T05:27:54;99747.00;;;14.16;80.57
78182;BME280;67441;50.116;8.696;2023-05-10T05:28:29;99746.16;;;14.17;80.87
78182;BME280;67441;50.116;8.696;2023-05-10T05:28:58;99697.00;;;13.97;80.72
78182;BME280;67441;50.116;8.696;2023-05-10T05:29:23;99754.78;;;14.31;80.74
78182;BME280;67441;50.116;8.696;2023-05-10T05:29:56;99745.97;;;14.29;80.80
78182;BME280;67441;50.116;8.696;2023-05-10T05:30:21;99749.50;;;14.28;80.38
78182;BME280;67441;50.116;8.696;2023-05-10T05:30:47;99739.81;;;14.27;80.76
78182;BME280;67441;50.116;8.696;2023-05-10T05:31:12;99741.78;;;14.10;80.54
78182;BME280;67441;50.116;8.696;2023-05-10T05:31:39;99750.72;;;14.04;80.99
78182;BME280;67441;50.116;8.696;2023-05-10T05:32:04;99749.00;;;14.00;81.21
78182;BME280;67441;50.116;8.696;2023-05-10T05:32:31;99656.25;;;13.40;81.42
78182;BME280;67441;50.116;8.696;2023-05-10T05:33:13;99750.91;;;13.87;81.95
78182;BME280;67441;50.116;8.696;2023-05-10T05:34:56;99747.09;;;14.10;81.69
78182;BME280;67441;50.116;8.696;2023-05-10T05:35:24;99743.56;;;14.11;81.68
78182;BME280;67441;50.116;8.696;2023-05-10T05:36:47;99738.28;;;14.09;81.79
78182;BME280;67441;50.116;8.696;2023-05-10T05:38:34;99693.59;;;13.89;81.23
78182;BME280;67441;50.116;8.696;2023-05-10T05:39:00;99697.09;;;13.90;81.26
78182;BME280;67441;50.116;8.696;2023-05-10T05:39:25;99735.63;;;14.11;81.61
78182;BME280;67441;50.116;8.696;2023-05-10T05:39:50;99716.41;;;13.96;82.09
78182;BME280;67441;50.116;8.696;2023-05-10T05:40:16;99748.88;;;14.09;82.01
78182;BME280;67441;50.116;8.696;2023-05-10T05:40:41;99748.91;;;14.08;81.87
78182;BME280;67441;50.116;8.696;2023-05-10T05:41:06;99748.97;;;14.03;82.21
78182;BME280;67441;50.116;8.696;2023-05-10T05:41:31;99738.59;;;13.86;82.33
78182;BME280;67441;50.116;8.696;2023-05-10T05:41:57;99744.81;;;13.80;82.83
78182;BME280;67441;50.116;8.696;2023-05-10T05:42:23;99751.16;;;13.64;82.98
78182;BME280;67441;50.116;8.696;2023-05-10T05:42:48;99750.34;;;13.62;83.05
78182;BME280;67441;50.116;8.696;2023-05-10T05:43:14;99718.72;;;13.51;83.39
78182;BME280;67441;50.116;8.696;2023-05-10T05:43:39;99745.84;;;13.69;83.21
78182;BME280;67441;50.116;8.696;2023-05-10T05:44:04;99740.47;;;13.76;83.00
78182;BME280;67441;50.116;8.696;2023-05-10T05:44:29;99747.38;;;13.88;82.96
78182;BME280;67441;50.116;8.696;2023-05-10T05:44:55;99751.78;;;13.89;82.90
78182;BME280;67441;50.116;8.696;2023-05-10T05:45:20;99749.97;;;13.93;82.77
78182;BME280;67441;50.116;8.696;2023-05-10T05:45:46;99744.63;;;13.97;82.71
78182;BME280;67441;50.116;8.696;2023-05-10T05:46:11;99752.53;;;14.00;82.77
78182;BME280;67441;50.116;8.696;2023-05-10T05:46:36;99743.75;;;13.97;83.12
78182;BME280;67441;50.116;8.696;2023-05-10T05:47:02;99736.81;;;13.85;82.64
78182;BME280;67441;50.116;8.696;2023-05-10T05:47:27;99732.50;;;13.78;82.23
78182;BME280;67441;50.116;8.696;2023-05-10T05:47:52;99754.50;;;13.83;82.72
78182;BME280;67441;50.116;8.696;2023-05-10T05:48:17;99752.81;;;13.76;82.79
78182;BME280;67441;50.116;8.696;2023-05-10T05:48:43;99756.34;;;13.75;83.20
78182;BME280;67441;50.116;8.696;2023-05-10T05:49:08;99736.03;;;13.77;83.13
78182;BME280;67441;50.116;8.696;2023-05-10T05:49:33;99752.53;;;13.99;82.98
78182;BME280;67441;50.116;8.696;2023-05-10T05:49:58;99755.94;;;14.09;82.86
78182;BME280;67441;50.116;8.696;2023-05-10T05:50:24;99751.44;;;14.15;82.46
78182;BME280;67441;50.116;8.696;2023-05-10T05:50:49;99758.47;;;14.18;82.04
78182;BME280;67441;50.116;8.696;2023-05-10T05:51:14;99752.19;;;14.25;82.05
78182;BME280;67441;50.116;8.696;2023-05-10T05:51:39;99737.34;;;14.15;81.46
78182;BME280;67441;50.116;8.696;2023-05-10T05:52:04;99756.47;;;14.34;81.87
78182;BME280;67441;50.116;8.696;2023-05-10T05:52:30;99722.31;;;14.17;81.44
78182;BME280;67441;50.116;8.696;2023-05-10T05:52:55;99754.78;;;14.30;81.66
78182;BME280;67441;50.116;8.696;2023-05-10T05:53:21;99747.00;;;14.17;81.53
78182;BME280;67441;50.116;8.696;2023-05-10T05:53:47;99755.91;;;14.12;81.48
78182;BME280;67441;50.116;8.696;2023-05-10T05:54:12;99757.63;;;14.13;81.76
78182;BME280;67441;50.116;8.696;2023-05-10T05:54:37;99758.66;;;14.02;81.71
78182;BME280;67441;50.116;8.696;2023-05-10T05:55:03;99747.41;;;13.85;82.04
78182;BME280;67441;50.116;8.696;2023-05-10T05:55:28;99757.84;;;13.97;82.21
78182;BME280;67441;50.116;8.696;2023-05-10T05:55:55;99755.31;;;13.88;82.31
78182;BME280;67441;50.116;8.696;2023-05-10T05:56:22;99764.00;;;13.99;82.50
78182;BME280;67441;50.116;8.696;2023-05-10T05:56:49;99758.75;;;13.96;82.22
78182;BME280;67441;50.116;8.696;2023-05-10T05:57:14;99763.13;;;13.97;82.14
78182;BME280;67441;50.116;8.696;2023-05-10T05:57:39;99756.06;;;13.99;82.20
78182;BME280;67441;50.116;8.696;2023-05-10T05:58:05;99764.00;;;13.98;82.42
78182;BME280;67441;50.116;8.696;2023-05-10T05:58:30;99763.22;;;13.93;82.55
78182;BME280;67441;50.116;8.696;2023-05-10T05:58:55;99771.16;;;13.91;82.36
78182;BME280;67441;50.116;8.696;2023-05-10T05:59:21;99762.31;;;13.94;82.25
78182;BME280;67441;50.116;8.696;2023-05-10T05:59:46;99758.81;;;13.89;82.25
78182;BME280;67441;50.116;8.696;2023-05-10T06:00:12;99752.75;;;13.82;82.30
78182;BME280;67441;50.116;8.696;2023-05-10T06:00:38;99764.97;;;13.91;82.53
78182;BME280;67441;50.116;8.696;2023-05-10T06:01:03;99755.34;;;13.85;82.27
78182;BME280;67441;50.116;8.696;2023-05-10T06:01:29;99768.53;;;13.90;82.28
78182;BME280;67441;50.116;8.696;2023-05-10T06:01:54;99774.69;;;13.90;82.63
78182;BME280;67441;50.116;8.696;2023-05-10T06:02:19;99769.50;;;13.83;82.75
78182;BME280;67441;50.116;8.696;2023-05-10T06:02:44;99773.06;;;13.77;83.06
78182;BME280;67441;50.116;8.696;2023-05-10T06:03:10;99771.34;;;13.76;83.28
78182;BME280;67441;50.116;8.696;2023-05-10T06:03:35;99771.31;;;13.79;83.18
78182;BME280;67441;50.116;8.696;2023-05-10T06:04:00;99771.31;;;13.79;82.98
78182;BME280;67441;50.116;8.696;2023-05-10T06:04:26;99765.13;;;13.80;82.91
78182;BME280;67441;50.116;8.696;2023-05-10T06:04:51;99774.81;;;13.78;82.82
78182;BME280;67441;50.116;8.696;2023-05-10T06:05:16;99766.91;;;13.76;82.76
78182;BME280;67441;50.116;8.696;2023-05-10T06:05:42;99770.34;;;13.85;83.01
78182;BME280;67441;50.116;8.696;2023-05-10T06:06:07;99768.53;;;13.88;82.45
78182;BME280;67441;50.116;8.696;2023-05-10T06:06:32;99770.28;;;13.91;82.47
78182;BME280;67441;50.116;8.696;2023-05-10T06:06:58;99772.88;;;13.92;82.32
78182;BME280;67441;50.116;8.696;2023-05-10T06:07:23;99769.38;;;13.92;82.49
78182;BME280;67441;50.116;8.696;2023-05-10T06:07:48;99775.50;;;13.95;82.26
78182;BME280;67441;50.116;8.696;2023-05-10T06:08:13;99774.59;;;13.98;82.28
78182;BME280;67441;50.116;8.696;2023-05-10T06:08:39;99768.47;;;13.96;82.35
78182;BME280;67441;50.116;8.696;2023-05-10T06:09:04;99776.38;;;13.97;82.22
78182;BME280;67441;50.116;8.696;2023-05-10T06:09:29;99760.53;;;13.94;82.25
78182;BME280;67441;50.116;8.696;2023-05-10T06:09:54;99775.50;;;13.97;81.87
78182;BME280;67441;50.116;8.696;2023-05-10T06:10:20;99768.47;;;13.96;82.25
78182;BME280;67441;50.116;8.696;2023-05-10T06:10:45;99777.28;;;13.96;81.88
78182;BME280;67441;50.116;8.696;2023-05-10T06:11:11;99766.72;;;13.92;82.02
78182;BME280;67441;50.116;8.696;2023-05-10T06:11:36;99773.69;;;14.00;81.96
78182;BME280;67441;50.116;8.696;2023-05-10T06:12:02;99779.91;;;13.95;82.02
78182;BME280;67441;50.116;8.696;2023-05-10T06:12:27;99785.13;;;14.02;81.93
78182;BME280;67441;50.116;8.696;2023-05-10T06:12:52;99785.00;;;14.12;81.77